createdAt,value
2022-08-05T00:01:35.908Z,49.55
2022-08-05T00:04:19.224Z,49.53
2022-08-05T00:06:47.540Z,49.50
2022-08-05T00:09:23.367Z,49.49
2022-08-05T00:11:55.898Z,49.49
2022-08-05T00:14:28.974Z,49.64
2022-08-05T00:16:58.289Z,49.65
2022-08-05T00:19:33.432Z,49.87
2022-08-05T00:22:04.305Z,50.06
2022-08-05T00:24:31.612Z,50.07
2022-08-05T00:26:59.865Z,50.04
2022-08-05T00:29:37.729Z,49.74
2022-08-05T00:32:12.410Z,49.84
2022-08-05T00:34:53.258Z,50.08
2022-08-05T00:37:21.960Z,50.22
2022-08-05T00:39:58.468Z,50.34
2022-08-05T00:42:34.084Z,50.13
2022-08-05T00:45:01.971Z,49.62
2022-08-05T00:47:31.772Z,49.72
2022-08-05T00:50:18.557Z,49.62
2022-08-05T00:52:47.740Z,49.66
2022-08-05T00:55:14.915Z,49.54
2022-08-05T00:57:58.089Z,49.54
2022-08-05T01:00:28.566Z,49.33
2022-08-05T01:02:56.872Z,49.55
2022-08-05T01:05:24.305Z,49.42
2022-08-05T01:08:30.788Z,49.62
2022-08-05T01:10:52.150Z,49.52
2022-08-05T01:13:58.303Z,49.67
2022-08-05T01:16:40.885Z,49.63
2022-08-05T01:19:56.151Z,49.44
2022-08-05T01:22:59.098Z,49.49
2022-08-05T01:26:02.616Z,49.89
2022-08-05T01:28:57.491Z,49.76
2022-08-05T01:31:51.574Z,49.83
2022-08-05T01:34:33.083Z,49.74
2022-08-05T01:37:25.031Z,49.91
2022-08-05T01:39:59.122Z,50.13
2022-08-05T01:42:29.768Z,50.22
2022-08-05T01:44:59.192Z,50.13
2022-08-05T01:47:32.550Z,50.40
2022-08-05T01:50:15.190Z,50.28
2022-08-05T01:52:50.096Z,50.25
2022-08-05T01:55:20.831Z,50.07
2022-08-05T01:58:11.958Z,50.60
2022-08-05T02:00:43.069Z,50.78
2022-08-05T02:03:34.203Z,51.02
2022-08-05T02:06:33.531Z,51.31
2022-08-05T02:08:57.801Z,51.55
2022-08-05T02:11:33.659Z,51.72
2022-08-05T02:14:12.982Z,51.51
2022-08-05T02:16:52.458Z,51.94
2022-08-05T02:19:34.446Z,51.99
2022-08-05T02:22:25.677Z,52.10
2022-08-05T02:25:08.794Z,51.80
2022-08-05T02:27:59.671Z,51.66
2022-08-05T02:30:38.791Z,51.49
2022-08-05T02:33:24.482Z,51.37
2022-08-05T02:36:05.387Z,51.50
2022-08-05T02:38:35.502Z,51.36
2022-08-05T02:41:06.462Z,51.55
2022-08-05T02:44:02.486Z,51.41
2022-08-05T02:46:34.416Z,51.43
2022-08-05T02:49:04.224Z,51.31
2022-08-05T02:52:03.781Z,51.54
2022-08-05T02:54:35.755Z,51.39
2022-08-05T02:57:09.805Z,51.60
2022-08-05T02:59:56.322Z,51.55
2022-08-05T03:02:29.097Z,51.57
2022-08-05T03:04:58.137Z,51.45
2022-08-05T03:08:01.930Z,51.52
2022-08-05T03:10:24.520Z,51.37
2022-08-05T03:12:52.118Z,51.23
2022-08-05T03:15:21.128Z,51.01
2022-08-05T03:17:54.216Z,50.94
2022-08-05T03:20:23.655Z,50.81
2022-08-05T03:22:52.261Z,50.67
2022-08-05T03:26:02.652Z,50.91
2022-08-05T03:28:09.284Z,50.70
2022-08-05T03:30:38.320Z,50.56
2022-08-05T03:33:08.500Z,50.27
2022-08-05T03:35:40.509Z,50.45
2022-08-05T03:38:14.511Z,50.47
2022-08-05T03:40:45.253Z,50.31
2022-08-05T03:44:08.633Z,49.96
2022-08-05T03:46:04.901Z,50.06
2022-08-05T03:48:35.091Z,50.38
2022-08-05T03:52:38.329Z,49.84
2022-08-05T03:55:06.959Z,49.69
2022-08-05T03:57:29.006Z,49.61
2022-08-05T04:00:08.848Z,49.97
2022-08-05T04:02:52.002Z,49.78
2022-08-05T04:05:27.891Z,49.90
2022-08-05T04:08:05.760Z,49.56
2022-08-05T04:10:51.044Z,49.61
2022-08-05T04:13:27.717Z,49.58
2022-08-05T04:16:14.375Z,49.42
2022-08-05T04:18:41.521Z,49.41
2022-08-05T04:21:11.147Z,49.64
2022-08-05T04:24:04.817Z,49.58
2022-08-05T04:26:25.680Z,48.88
2022-08-05T04:29:07.143Z,48.88
2022-08-05T04:31:38.417Z,48.81
2022-08-05T04:34:19.726Z,48.83
2022-08-05T04:37:00.813Z,48.98
2022-08-05T04:39:30.075Z,49.15
2022-08-05T04:41:57.613Z,48.91
2022-08-05T04:44:29.509Z,49.17
2022-08-05T04:46:58.988Z,48.74
2022-08-05T04:49:38.446Z,48.61
2022-08-05T04:52:14.278Z,48.54
2022-08-05T04:54:44.484Z,48.80
2022-08-05T04:57:11.315Z,48.86
2022-08-05T04:59:39.045Z,48.82
2022-08-05T05:02:36.230Z,48.68
2022-08-05T05:05:02.344Z,48.31
2022-08-05T05:07:32.677Z,47.85
2022-08-05T05:10:02.259Z,47.50
2022-08-05T05:12:30.403Z,47.37
2022-08-05T05:14:57.290Z,47.45
2022-08-05T05:17:55.719Z,47.73
2022-08-05T05:20:12.887Z,47.39
2022-08-05T05:22:41.132Z,47.27
2022-08-05T05:25:16.110Z,47.23
2022-08-05T05:27:53.689Z,47.18
2022-08-05T05:30:29.173Z,47.37
2022-08-05T05:33:00.659Z,47.23
2022-08-05T05:35:34.449Z,46.98
2022-08-05T05:38:09.096Z,46.74
2022-08-05T05:40:42.534Z,46.72
2022-08-05T05:43:15.257Z,46.55
2022-08-05T05:45:49.556Z,46.09
2022-08-05T05:48:16.341Z,46.27
2022-08-05T05:50:44.219Z,45.74
2022-08-05T05:53:22.147Z,44.67
2022-08-05T05:55:52.413Z,43.35
2022-08-05T05:58:31.484Z,41.79
2022-08-05T06:01:12.368Z,39.94
2022-08-05T06:04:01.038Z,36.38
2022-08-05T06:06:30.821Z,31.94
2022-08-05T06:08:58.759Z,32.47
2022-08-05T06:11:26.029Z,33.97
2022-08-05T06:13:55.411Z,30.96
2022-08-05T06:16:30.124Z,30.26
2022-08-05T06:19:01.223Z,31.51
2022-08-05T06:21:36.131Z,32.73
2022-08-05T06:24:11.543Z,33.03
2022-08-05T06:26:45.902Z,32.99
2022-08-05T06:29:25.525Z,33.41
2022-08-05T06:32:21.043Z,32.83
2022-08-05T06:34:48.525Z,33.12
2022-08-05T06:37:56.163Z,33.26
2022-08-05T06:40:08.073Z,33.44
2022-08-05T06:42:34.964Z,33.71
2022-08-05T06:45:05.506Z,33.26
2022-08-05T06:48:44.209Z,33.65
2022-08-05T06:50:22.198Z,33.23
2022-08-05T06:52:58.736Z,33.04
2022-08-05T06:55:36.441Z,33.13
2022-08-05T06:58:19.892Z,33.02
2022-08-05T07:00:51.526Z,32.76
2022-08-05T07:03:18.428Z,31.96
2022-08-05T07:05:46.356Z,30.92
2022-08-05T07:08:13.720Z,31.07
2022-08-05T07:10:52.502Z,31.30
2022-08-05T07:13:59.871Z,29.97
2022-08-05T07:17:59.256Z,27.28
2022-08-05T07:22:29.064Z,22.74
2022-08-05T07:25:09.541Z,18.83
2022-08-05T07:27:57.064Z,15.54
2022-08-05T07:30:32.068Z,13.62
2022-08-05T07:33:00.934Z,12.26
2022-08-05T07:36:03.728Z,11.21
2022-08-05T07:38:32.483Z,10.39
2022-08-05T07:42:07.481Z,9.34
2022-08-05T07:43:50.471Z,9.28
2022-08-05T07:46:20.745Z,9.11
2022-08-05T07:49:02.217Z,8.15
2022-08-05T07:51:40.293Z,7.75
2022-08-05T07:54:09.841Z,7.35
2022-08-05T07:57:00.162Z,7.30
2022-08-05T07:59:38.625Z,7.29
2022-08-05T08:02:16.809Z,7.61
2022-08-05T08:04:46.650Z,7.43
2022-08-05T08:07:15.058Z,6.72
2022-08-05T08:09:42.616Z,6.54
2022-08-05T08:12:30.606Z,6.45
2022-08-05T08:14:57.378Z,6.01
2022-08-05T08:17:31.719Z,4.92
2022-08-05T08:20:21.382Z,5.17
2022-08-05T08:22:54.714Z,5.29
2022-08-05T08:25:27.134Z,5.17
2022-08-05T08:28:18.542Z,4.51
2022-08-05T08:30:48.040Z,4.62
2022-08-05T08:33:19.300Z,4.93
2022-08-05T08:35:53.778Z,4.39
2022-08-05T08:38:32.143Z,4.18
2022-08-05T08:41:08.652Z,4.39
2022-08-05T08:45:20.238Z,4.00
2022-08-05T08:46:27.569Z,4.08
2022-08-05T08:49:07.487Z,4.34
2022-08-05T08:52:05.596Z,5.14
2022-08-05T08:54:36.264Z,4.44
2022-08-05T08:57:11.607Z,4.51
2022-08-05T08:59:41.947Z,4.02
2022-08-05T09:02:16.666Z,4.34
2022-08-05T09:04:58.271Z,3.83
2022-08-05T09:07:39.938Z,3.79
2022-08-05T09:10:20.299Z,4.14
2022-08-05T09:12:50.900Z,3.86
2022-08-05T09:15:18.289Z,4.19
2022-08-05T09:17:49.856Z,6.42
2022-08-05T09:20:36.778Z,5.59
2022-08-05T09:23:07.933Z,4.44
2022-08-05T09:26:00.818Z,4.05
2022-08-05T09:28:32.420Z,4.20
2022-08-05T09:31:23.255Z,3.38
2022-08-05T09:34:05.680Z,3.99
2022-08-05T09:36:56.234Z,3.89
2022-08-05T09:39:39.222Z,3.47
2022-08-05T09:42:20.183Z,4.22
2022-08-05T09:44:56.003Z,6.04
2022-08-05T09:47:48.379Z,8.61
2022-08-05T09:50:18.166Z,11.26
2022-08-05T09:53:01.783Z,12.38
2022-08-05T09:55:57.917Z,14.42
2022-08-05T09:58:22.686Z,15.62
2022-08-05T10:01:15.405Z,16.49
2022-08-05T10:04:10.462Z,17.43
2022-08-05T10:06:40.696Z,18.74
2022-08-05T10:09:25.167Z,19.09
2022-08-05T10:11:56.231Z,19.61
2022-08-05T10:14:26.705Z,19.63
2022-08-05T10:16:56.571Z,20.12
2022-08-05T10:20:02.762Z,21.22
2022-08-05T10:22:25.323Z,21.47
2022-08-05T10:24:57.537Z,22.53
2022-08-05T10:27:26.039Z,23.22
2022-08-05T10:31:20.479Z,23.35
2022-08-05T10:33:01.661Z,24.08
2022-08-05T10:35:33.674Z,24.23
2022-08-05T10:38:08.773Z,24.33
2022-08-05T10:40:49.911Z,24.35
2022-08-05T10:43:57.939Z,24.64
2022-08-05T10:46:43.116Z,24.70
2022-08-05T10:49:16.432Z,24.92
2022-08-05T10:52:00.404Z,24.78
2022-08-05T10:55:02.126Z,24.62
2022-08-05T10:57:31.966Z,24.90
2022-08-05T11:00:16.112Z,25.14
2022-08-05T11:03:26.006Z,25.44
2022-08-05T11:06:15.048Z,25.86
2022-08-05T11:09:10.888Z,25.49
2022-08-05T11:11:52.568Z,25.21
2022-08-05T11:14:57.766Z,25.19
2022-08-05T11:18:00.053Z,25.08
2022-08-05T11:20:39.124Z,26.09
2022-08-05T11:24:05.717Z,26.18
2022-08-05T11:26:28.836Z,26.55
2022-08-05T11:29:06.626Z,27.26
2022-08-05T11:31:56.778Z,27.62
2022-08-05T11:34:51.420Z,28.21
2022-08-05T11:38:26.403Z,27.82
2022-08-05T11:41:03.577Z,28.34
2022-08-05T11:44:06.328Z,27.79
2022-08-05T11:46:57.946Z,27.12
2022-08-05T11:49:24.967Z,26.60
2022-08-05T11:51:53.776Z,26.68
2022-08-05T11:54:33.431Z,26.43
2022-08-05T11:57:08.723Z,25.94
2022-08-05T11:59:50.835Z,26.24
2022-08-05T12:02:23.868Z,26.36
2022-08-05T12:04:59.568Z,26.54
2022-08-05T12:08:02.713Z,26.96
2022-08-05T12:10:20.178Z,27.25
2022-08-05T12:12:59.260Z,27.11
2022-08-05T12:15:37.962Z,27.57
2022-08-05T12:18:10.886Z,27.77
2022-08-05T12:20:38.979Z,27.96
2022-08-05T12:23:10.496Z,27.77
2022-08-05T12:25:56.772Z,27.78
2022-08-05T12:28:38.001Z,28.08
2022-08-05T12:31:05.905Z,27.79
2022-08-05T12:33:37.222Z,28.22
2022-08-05T12:36:09.580Z,27.98
2022-08-05T12:38:42.130Z,27.85
2022-08-05T12:41:12.856Z,27.54
2022-08-05T12:43:50.866Z,27.92
2022-08-05T12:46:31.982Z,28.65
2022-08-05T12:49:05.876Z,28.81
2022-08-05T12:52:14.331Z,28.48
2022-08-05T12:54:41.888Z,28.31
2022-08-05T12:57:13.001Z,28.25
2022-08-05T13:01:58.135Z,28.93
2022-08-05T13:02:41.716Z,28.35
2022-08-05T13:05:12.745Z,27.97
2022-08-05T13:08:00.264Z,27.00
2022-08-05T13:10:31.784Z,26.69
2022-08-05T13:13:01.056Z,26.47
2022-08-05T13:15:35.761Z,26.64
2022-08-05T13:18:08.660Z,27.17
2022-08-05T13:20:40.450Z,27.00
2022-08-05T13:23:07.818Z,26.91
2022-08-05T13:25:52.301Z,26.77
2022-08-05T13:28:22.387Z,26.84
2022-08-05T13:30:51.116Z,26.31
2022-08-05T13:34:21.356Z,26.93
2022-08-05T13:36:06.945Z,26.56
2022-08-05T13:38:42.036Z,26.69
2022-08-05T13:41:13.181Z,26.36
2022-08-05T13:43:45.266Z,27.04
2022-08-05T13:46:50.557Z,28.07
2022-08-05T13:49:12.954Z,29.24
2022-08-05T13:51:45.833Z,28.47
2022-08-05T13:54:15.405Z,28.54
2022-08-05T13:56:44.909Z,28.72
2022-08-05T13:59:19.317Z,28.03
2022-08-05T14:01:56.744Z,28.24
2022-08-05T14:04:51.924Z,28.44
2022-08-05T14:08:03.040Z,29.27
2022-08-05T14:10:28.696Z,30.16
2022-08-05T14:12:57.122Z,30.67
2022-08-05T14:16:08.863Z,31.65
2022-08-05T14:18:17.370Z,31.67
2022-08-05T14:20:48.832Z,32.46
2022-08-05T14:23:19.240Z,31.51
2022-08-05T14:25:59.127Z,30.35
2022-08-05T14:28:30.435Z,29.79
2022-08-05T14:30:59.067Z,29.92
2022-08-05T14:33:26.273Z,29.81
2022-08-05T14:35:54.523Z,29.50
2022-08-05T14:38:31.884Z,29.00
2022-08-05T14:41:07.671Z,28.37
2022-08-05T14:43:57.516Z,28.31
2022-08-05T14:46:30.698Z,28.63
2022-08-05T14:49:06.325Z,29.08
2022-08-05T14:51:36.346Z,29.24
2022-08-05T14:54:27.411Z,28.90
2022-08-05T14:56:54.643Z,28.62
2022-08-05T14:59:22.060Z,28.34
2022-08-05T15:01:49.956Z,28.59
2022-08-05T15:04:22.283Z,28.08
2022-08-05T15:06:51.003Z,27.97
2022-08-05T15:09:51.305Z,28.52
2022-08-05T15:12:11.587Z,28.61
2022-08-05T15:14:49.625Z,28.18
2022-08-05T15:17:46.469Z,27.86
2022-08-05T15:20:17.109Z,27.70
2022-08-05T15:22:54.081Z,28.33
2022-08-05T15:25:40.980Z,28.13
2022-08-05T15:28:13.329Z,28.63
2022-08-05T15:30:43.636Z,29.11
2022-08-05T15:33:12.746Z,28.99
2022-08-05T15:35:59.512Z,29.06
2022-08-05T15:38:35.599Z,28.68
2022-08-05T15:41:23.120Z,28.84
2022-08-05T15:43:50.455Z,28.72
2022-08-05T15:46:19.976Z,28.87
2022-08-05T15:48:53.012Z,28.81
2022-08-05T15:52:12.887Z,28.56
2022-08-05T15:54:16.427Z,28.95
2022-08-05T15:56:43.620Z,29.05
2022-08-05T15:59:20.285Z,28.65
2022-08-05T16:01:52.944Z,28.83
2022-08-05T16:04:25.681Z,29.17
2022-08-05T16:06:56.527Z,28.95
2022-08-05T16:09:25.426Z,29.23
2022-08-05T16:11:54.018Z,28.99
2022-08-05T16:14:22.403Z,29.06
2022-08-05T16:16:49.670Z,29.38
2022-08-05T16:19:19.169Z,29.25
2022-08-05T16:22:03.991Z,29.46
2022-08-05T16:24:41.007Z,29.36
2022-08-05T16:27:47.245Z,29.43
2022-08-05T16:30:08.436Z,29.57
2022-08-05T16:32:50.621Z,29.66
2022-08-05T16:35:17.558Z,29.64
2022-08-05T16:38:15.678Z,29.75
2022-08-05T16:40:55.682Z,29.86
2022-08-05T16:43:28.462Z,29.89
2022-08-05T16:46:07.765Z,30.19
2022-08-05T16:48:42.816Z,30.08
2022-08-05T16:51:10.785Z,29.86
2022-08-05T16:54:06.139Z,29.94
2022-08-05T16:56:28.042Z,30.24
2022-08-05T16:58:55.156Z,30.38
2022-08-05T17:01:22.182Z,30.43
2022-08-05T17:03:52.085Z,30.26
2022-08-05T17:06:19.573Z,30.57
2022-08-05T17:08:53.000Z,30.55
2022-08-05T17:11:23.466Z,30.87
2022-08-05T17:14:05.498Z,30.91
2022-08-05T17:16:38.035Z,30.98
2022-08-05T17:19:07.619Z,31.36
2022-08-05T17:21:37.236Z,31.32
2022-08-05T17:24:28.008Z,31.78
2022-08-05T17:26:57.138Z,32.10
2022-08-05T17:29:33.772Z,31.96
2022-08-05T17:32:16.998Z,32.45
2022-08-05T17:34:47.624Z,32.74
2022-08-05T17:37:40.362Z,33.27
2022-08-05T17:40:10.822Z,33.12
2022-08-05T17:42:42.962Z,33.52
2022-08-05T17:45:21.092Z,33.79
2022-08-05T17:47:53.995Z,34.36
2022-08-05T17:50:28.504Z,34.71
2022-08-05T17:52:59.317Z,35.00
2022-08-05T17:55:34.205Z,35.51
2022-08-05T17:58:06.938Z,35.51
2022-08-05T18:00:36.191Z,35.77
2022-08-05T18:03:07.902Z,36.31
2022-08-05T18:05:36.223Z,36.17
2022-08-05T18:08:03.675Z,35.74
2022-08-05T18:10:33.407Z,34.59
2022-08-05T18:13:01.958Z,34.39
2022-08-05T18:15:31.084Z,34.61
2022-08-05T18:18:05.713Z,34.59
2022-08-05T18:20:37.958Z,35.27
2022-08-05T18:23:09.021Z,35.31
2022-08-05T18:25:39.106Z,35.60
2022-08-05T18:28:07.357Z,35.95
2022-08-05T18:30:40.165Z,36.25
2022-08-05T18:33:07.681Z,36.26
2022-08-05T18:36:00.122Z,36.49
2022-08-05T18:38:26.093Z,37.33
2022-08-05T18:41:55.434Z,37.21
2022-08-05T18:43:43.259Z,37.26
2022-08-05T18:46:20.008Z,37.88
2022-08-05T18:48:52.624Z,37.62
2022-08-05T18:52:04.189Z,37.79
2022-08-05T18:54:31.665Z,37.80
2022-08-05T18:57:02.192Z,38.05
2022-08-05T18:59:43.324Z,38.37
2022-08-05T19:02:28.183Z,38.53
2022-08-05T19:05:03.030Z,38.32
2022-08-05T19:07:46.534Z,38.73
2022-08-05T19:10:17.724Z,38.95
2022-08-05T19:12:46.141Z,38.63
2022-08-05T19:15:56.743Z,37.92
2022-08-05T19:18:09.138Z,36.78
2022-08-05T19:20:37.330Z,35.80
2022-08-05T19:23:08.724Z,35.54
2022-08-05T19:26:01.676Z,35.23
2022-08-05T19:28:30.851Z,35.01
2022-08-05T19:30:57.934Z,34.45
2022-08-05T19:33:34.021Z,34.58
2022-08-05T19:36:09.090Z,34.64
2022-08-05T19:38:36.755Z,34.44
2022-08-05T19:41:06.833Z,34.24
2022-08-05T19:44:07.046Z,34.56
2022-08-05T19:46:29.513Z,34.44
2022-08-05T19:49:01.127Z,34.34
2022-08-05T19:52:05.012Z,34.32
2022-08-05T19:54:27.075Z,34.68
2022-08-05T19:56:59.383Z,34.54
2022-08-05T19:59:56.036Z,34.43
2022-08-05T20:02:15.144Z,34.54
2022-08-05T20:04:46.048Z,34.88
2022-08-05T20:07:15.368Z,35.09
2022-08-05T20:09:53.573Z,34.94
2022-08-05T20:12:23.486Z,34.86
2022-08-05T20:14:52.431Z,34.99
2022-08-05T20:17:23.394Z,35.15
2022-08-05T20:19:56.596Z,35.22
2022-08-05T20:22:24.363Z,35.00
2022-08-05T20:24:53.946Z,34.94
2022-08-05T20:27:26.380Z,35.16
2022-08-05T20:29:58.729Z,35.38
2022-08-05T20:32:27.148Z,35.24
2022-08-05T20:34:54.588Z,35.07
2022-08-05T20:38:05.962Z,35.63
2022-08-05T20:40:09.715Z,35.41
2022-08-05T20:42:37.790Z,35.56
2022-08-05T20:45:08.244Z,35.31
2022-08-05T20:47:35.124Z,35.69
2022-08-05T20:50:07.738Z,36.16
2022-08-05T20:52:35.423Z,36.52
2022-08-05T20:55:55.401Z,36.53
2022-08-05T20:57:52.076Z,36.75
2022-08-05T21:00:44.370Z,36.56
2022-08-05T21:03:13.351Z,37.04
2022-08-05T21:05:53.859Z,37.05
2022-08-05T21:08:26.548Z,37.15
2022-08-05T21:11:11.661Z,36.93
2022-08-05T21:13:47.420Z,37.12
2022-08-05T21:16:22.381Z,36.88
2022-08-05T21:18:56.112Z,37.09
2022-08-05T21:21:27.387Z,36.88
2022-08-05T21:24:12.971Z,36.73
2022-08-05T21:26:41.468Z,37.43
2022-08-05T21:29:12.529Z,38.52
2022-08-05T21:31:43.380Z,38.87
2022-08-05T21:34:10.449Z,39.31
2022-08-05T21:36:38.508Z,39.59
2022-08-05T21:39:05.522Z,39.78
2022-08-05T21:41:35.636Z,39.91
2022-08-05T21:44:04.417Z,39.26
2022-08-05T21:46:36.959Z,39.07
2022-08-05T21:49:07.315Z,39.14
2022-08-05T21:52:26.822Z,40.09
2022-08-05T21:54:30.757Z,40.47
2022-08-05T21:57:29.229Z,40.54
2022-08-05T22:00:03.020Z,39.93
2022-08-05T22:02:31.762Z,39.27
2022-08-05T22:04:58.722Z,39.12
2022-08-05T22:07:39.956Z,38.87
2022-08-05T22:10:15.133Z,38.72
2022-08-05T22:12:44.906Z,38.83
2022-08-05T22:16:00.569Z,38.88
2022-08-05T22:18:05.431Z,38.78
2022-08-05T22:20:32.571Z,38.86
2022-08-05T22:23:21.307Z,38.99
2022-08-05T22:26:09.866Z,38.69
2022-08-05T22:28:38.734Z,38.80
2022-08-05T22:31:06.254Z,39.13
2022-08-05T22:33:57.026Z,38.98
2022-08-05T22:36:23.886Z,38.83
2022-08-05T22:38:51.713Z,39.17
2022-08-05T22:42:04.743Z,39.24
2022-08-05T22:44:08.582Z,39.02
2022-08-05T22:46:39.640Z,39.27
2022-08-05T22:49:12.514Z,39.40
2022-08-05T22:52:04.937Z,39.38
2022-08-05T22:54:33.803Z,39.13
2022-08-05T22:57:00.761Z,39.57
2022-08-05T22:59:43.895Z,39.57
2022-08-05T23:02:22.896Z,39.70
2022-08-05T23:04:57.935Z,39.90
2022-08-05T23:07:29.177Z,40.31
2022-08-05T23:10:01.428Z,40.23
2022-08-05T23:12:32.907Z,40.54
2022-08-05T23:15:03.731Z,40.33
2022-08-05T23:17:37.846Z,40.31
2022-08-05T23:20:23.574Z,40.48
2022-08-05T23:22:55.560Z,40.45
2022-08-05T23:25:52.253Z,40.72
2022-08-05T23:28:11.070Z,40.55
2022-08-05T23:30:43.486Z,41.04
2022-08-05T23:33:25.731Z,41.18
2022-08-05T23:36:03.643Z,40.91
2022-08-05T23:38:31.652Z,41.23
2022-08-05T23:40:58.616Z,41.59
2022-08-05T23:43:37.305Z,41.47
2022-08-05T23:46:21.392Z,41.88
2022-08-05T23:49:00.895Z,41.51
2022-08-05T23:51:54.026Z,41.83
2022-08-05T23:54:36.487Z,41.72
2022-08-05T23:57:06.252Z,41.77
